Terminal Aerodrome Forecast
Issued by NWS

Home | Current Version | Previous Version | Text Only | Print | Product List | Glossary On
Versions: 1 2 3 4 5 6 7 8 9 10 11 12 13 14 15
000
FTUS45 KABQ 191738
TAFTCC
TAF
KTCC 191738Z 1918/2018 26011KT P6SM SKC
     FM191900 26014G22KT P6SM BKN200
     FM200400 26020G30KT P6SM SCT150
     FM201100 26028G35KT P6SM BKN250
     FM201700 26030G38KT P6SM SKC=

USA.gov is the U.S. government's official web portal to all federal, state and local government web resources and services.